createdAt,value
2019-06-19T00:01:22.501Z,23.17
2019-06-19T00:03:53.259Z,23.17
2019-06-19T00:06:23.295Z,23.16
2019-06-19T00:08:53.000Z,23.02
2019-06-19T00:11:23.039Z,22.92
2019-06-19T00:13:53.086Z,22.93
2019-06-19T00:16:23.064Z,22.90
2019-06-19T00:18:53.515Z,22.88
2019-06-19T00:21:23.160Z,22.83
2019-06-19T00:23:53.142Z,22.76
2019-06-19T00:26:22.868Z,22.51
2019-06-19T00:28:52.311Z,22.46
2019-06-19T00:31:22.212Z,22.43
2019-06-19T00:33:52.038Z,22.40
2019-06-19T00:36:21.620Z,22.37
2019-06-19T00:38:51.355Z,22.28
2019-06-19T00:41:21.776Z,22.36
2019-06-19T00:43:51.426Z,22.43
2019-06-19T00:46:21.744Z,22.51
2019-06-19T00:48:52.005Z,22.50
2019-06-19T00:51:21.551Z,22.52
2019-06-19T00:53:51.291Z,22.46
2019-06-19T00:56:25.153Z,22.43
2019-06-19T00:58:54.660Z,22.35
2019-06-19T01:01:24.117Z,22.24
2019-06-19T01:03:53.561Z,22.25
2019-06-19T01:06:23.089Z,22.11
2019-06-19T01:08:52.863Z,21.98
2019-06-19T01:11:22.477Z,21.94
2019-06-19T01:13:52.024Z,21.83
2019-06-19T01:16:21.441Z,21.78
2019-06-19T01:18:51.447Z,21.77
2019-06-19T01:21:22.647Z,21.70
2019-06-19T01:23:52.315Z,21.64
2019-06-19T01:26:21.771Z,21.54
2019-06-19T01:28:51.338Z,21.56
2019-06-19T01:31:21.959Z,21.47
2019-06-19T01:33:51.576Z,21.50
2019-06-19T01:36:21.294Z,21.48
2019-06-19T01:38:51.618Z,21.25
2019-06-19T01:41:21.384Z,21.17
2019-06-19T01:43:51.261Z,21.25
2019-06-19T01:46:21.191Z,21.16
2019-06-19T01:48:51.902Z,21.13
2019-06-19T01:51:21.554Z,21.17
2019-06-19T01:54:22.226Z,21.14
2019-06-19T01:56:52.584Z,21.06
2019-06-19T01:59:23.233Z,21.04
2019-06-19T02:01:53.117Z,20.99
2019-06-19T02:04:22.910Z,20.99
2019-06-19T02:06:52.773Z,20.99
2019-06-19T02:09:22.589Z,20.99
2019-06-19T02:11:52.568Z,20.91
2019-06-19T02:14:21.999Z,20.91
2019-06-19T02:16:52.546Z,20.95
2019-06-19T02:19:26.766Z,20.92
2019-06-19T02:21:53.634Z,20.77
2019-06-19T02:24:23.145Z,20.81
2019-06-19T02:26:52.600Z,20.80
2019-06-19T02:29:22.057Z,20.82
2019-06-19T02:31:54.004Z,20.78
2019-06-19T02:34:22.744Z,20.80
2019-06-19T02:36:52.751Z,20.79
2019-06-19T02:39:22.381Z,20.83
2019-06-19T02:41:52.353Z,20.77
2019-06-19T02:44:21.814Z,20.74
2019-06-19T02:46:51.433Z,20.71
2019-06-19T02:49:20.874Z,20.65
2019-06-19T02:51:50.340Z,20.64
2019-06-19T02:54:19.857Z,20.70
2019-06-19T02:56:49.380Z,20.70
2019-06-19T02:59:18.838Z,20.63
2019-06-19T03:01:48.278Z,20.55
2019-06-19T03:04:17.792Z,20.58
2019-06-19T03:06:47.925Z,20.48
2019-06-19T03:09:17.365Z,20.41
2019-06-19T03:11:46.809Z,20.55
2019-06-19T03:14:16.269Z,20.56
2019-06-19T03:16:45.732Z,20.47
2019-06-19T03:19:15.181Z,20.46
2019-06-19T03:21:44.644Z,20.60
2019-06-19T03:24:17.117Z,20.52
2019-06-19T03:26:45.271Z,20.46
2019-06-19T03:29:14.770Z,20.55
2019-06-19T03:31:44.210Z,20.57
2019-06-19T03:34:13.641Z,20.68
2019-06-19T03:36:43.104Z,20.71
2019-06-19T03:39:12.546Z,20.67
2019-06-19T03:41:42.084Z,20.68
2019-06-19T03:44:12.046Z,20.68
2019-06-19T03:46:41.770Z,20.58
2019-06-19T03:49:11.229Z,20.67
2019-06-19T03:51:40.686Z,20.78
2019-06-19T03:54:10.132Z,20.81
2019-06-19T03:56:39.576Z,20.80
2019-06-19T03:59:09.037Z,20.72
2019-06-19T04:01:48.997Z,20.78
2019-06-19T04:04:09.651Z,20.90
2019-06-19T04:06:39.119Z,20.94
2019-06-19T04:09:08.563Z,21.02
2019-06-19T04:11:38.035Z,21.10
2019-06-19T04:14:07.536Z,21.17
2019-06-19T04:16:36.993Z,21.25
2019-06-19T04:19:06.443Z,21.24
2019-06-19T04:21:35.928Z,21.30
2019-06-19T04:24:05.411Z,21.32
2019-06-19T04:26:35.259Z,21.36
2019-06-19T04:29:09.473Z,21.41
2019-06-19T04:31:38.920Z,21.40
2019-06-19T04:34:08.359Z,21.42
2019-06-19T04:36:37.826Z,21.41
2019-06-19T04:39:08.331Z,21.53
2019-06-19T04:41:37.859Z,21.62
2019-06-19T04:44:07.305Z,21.47
2019-06-19T04:46:36.821Z,21.54
2019-06-19T04:49:06.404Z,21.60
2019-06-19T04:51:35.848Z,21.67
2019-06-19T04:54:05.439Z,21.81
2019-06-19T04:56:35.530Z,21.91
2019-06-19T04:59:05.930Z,21.92
2019-06-19T05:01:35.633Z,22.09
2019-06-19T05:04:05.344Z,21.94
2019-06-19T05:06:34.941Z,21.98
2019-06-19T05:09:06.026Z,22.09
2019-06-19T05:11:35.468Z,21.97
2019-06-19T05:14:05.004Z,22.10
2019-06-19T05:16:34.443Z,22.23
2019-06-19T05:19:03.902Z,22.45
2019-06-19T05:21:33.340Z,22.61
2019-06-19T05:24:02.800Z,22.78
2019-06-19T05:26:32.239Z,22.72
2019-06-19T05:29:01.683Z,22.75
2019-06-19T05:31:31.144Z,22.88
2019-06-19T05:34:00.705Z,22.86
2019-06-19T05:36:30.147Z,23.05
2019-06-19T05:38:59.618Z,23.20
2019-06-19T05:41:29.058Z,23.19
2019-06-19T05:43:58.500Z,23.31
2019-06-19T05:46:27.958Z,23.53
2019-06-19T05:48:57.481Z,23.65
2019-06-19T05:51:26.940Z,23.78
2019-06-19T05:53:56.389Z,23.82
2019-06-19T05:56:25.918Z,23.94
2019-06-19T05:58:55.502Z,24.08
2019-06-19T06:01:25.007Z,24.18
2019-06-19T06:03:54.500Z,24.39
2019-06-19T06:06:23.910Z,24.53
2019-06-19T06:08:53.410Z,24.63
2019-06-19T06:11:22.862Z,24.50
2019-06-19T06:13:52.304Z,24.69
2019-06-19T06:16:21.779Z,24.88
2019-06-19T06:18:51.221Z,25.01
2019-06-19T06:21:38.009Z,25.07
2019-06-19T06:24:07.546Z,25.07
2019-06-19T06:26:36.993Z,25.14
2019-06-19T06:29:06.627Z,25.17
2019-06-19T06:31:36.069Z,25.19
2019-06-19T06:34:05.854Z,25.17
2019-06-19T06:36:35.297Z,25.26
2019-06-19T06:39:06.897Z,25.34
2019-06-19T06:41:36.316Z,25.48
2019-06-19T06:44:06.396Z,25.66
2019-06-19T06:46:35.856Z,25.73
2019-06-19T06:49:05.315Z,25.78
2019-06-19T06:51:34.811Z,25.84
2019-06-19T06:54:04.457Z,25.95
2019-06-19T06:56:33.920Z,25.95
2019-06-19T06:59:03.801Z,26.07
2019-06-19T07:01:33.280Z,26.23
2019-06-19T07:04:02.764Z,26.21
2019-06-19T07:06:32.187Z,26.23
2019-06-19T07:09:01.634Z,26.18
2019-06-19T07:11:31.097Z,26.25
2019-06-19T07:14:00.543Z,26.28
2019-06-19T07:16:29.990Z,26.34
2019-06-19T07:18:59.468Z,26.35
2019-06-19T07:21:30.415Z,26.54
2019-06-19T07:24:00.034Z,26.54
2019-06-19T07:26:29.491Z,26.38
2019-06-19T07:28:58.934Z,26.57
2019-06-19T07:31:28.390Z,26.60
2019-06-19T07:33:58.689Z,26.87
2019-06-19T07:36:28.129Z,26.92
2019-06-19T07:38:57.590Z,27.04
2019-06-19T07:41:27.049Z,27.17
2019-06-19T07:43:56.512Z,27.17
2019-06-19T07:46:25.942Z,26.93
2019-06-19T07:48:55.388Z,27.11
2019-06-19T07:51:24.914Z,27.31
2019-06-19T07:53:54.369Z,27.38
2019-06-19T07:56:23.809Z,27.44
2019-06-19T07:58:53.264Z,27.44
2019-06-19T08:01:22.720Z,27.51
2019-06-19T08:03:57.802Z,27.55
2019-06-19T08:06:23.406Z,27.38
2019-06-19T08:08:53.134Z,27.94
2019-06-19T08:11:22.575Z,28.15
2019-06-19T08:13:52.038Z,28.37
2019-06-19T08:16:21.484Z,28.55
2019-06-19T08:18:50.949Z,28.75
2019-06-19T08:21:20.390Z,28.68
2019-06-19T08:23:50.003Z,28.69
2019-06-19T08:26:19.467Z,28.75
2019-06-19T08:28:48.920Z,28.89
2019-06-19T08:31:18.389Z,28.99
2019-06-19T08:33:47.843Z,29.00
2019-06-19T08:36:17.298Z,29.12
2019-06-19T08:38:46.765Z,29.10
2019-06-19T08:41:16.229Z,29.05
2019-06-19T08:43:45.679Z,29.26
2019-06-19T08:46:15.132Z,29.31
2019-06-19T08:48:44.583Z,29.35
2019-06-19T08:51:14.050Z,29.62
2019-06-19T08:53:43.587Z,29.73
2019-06-19T08:56:13.031Z,29.98
2019-06-19T08:58:42.471Z,30.16
2019-06-19T09:01:12.011Z,30.40
2019-06-19T09:03:41.477Z,30.11
2019-06-19T09:06:10.932Z,30.06
2019-06-19T09:08:40.377Z,30.21
2019-06-19T09:11:13.943Z,30.15
2019-06-19T09:13:43.387Z,30.32
2019-06-19T09:16:12.846Z,30.38
2019-06-19T09:18:42.315Z,30.26
2019-06-19T09:21:12.026Z,30.45
2019-06-19T09:23:41.433Z,30.40
2019-06-19T09:26:10.890Z,30.38
2019-06-19T09:28:40.339Z,30.14
2019-06-19T09:31:09.853Z,30.28
2019-06-19T09:33:39.315Z,30.29
2019-06-19T09:36:08.756Z,30.47
2019-06-19T09:38:38.228Z,30.11
2019-06-19T09:41:07.665Z,30.07
2019-06-19T09:43:37.126Z,30.31
2019-06-19T09:46:07.618Z,30.27
2019-06-19T09:48:37.140Z,30.16
2019-06-19T09:51:06.965Z,30.53
2019-06-19T09:53:36.415Z,30.56
2019-06-19T09:56:05.925Z,30.54
2019-06-19T09:58:35.384Z,30.80
2019-06-19T10:01:04.918Z,30.51
2019-06-19T10:03:35.101Z,30.84
2019-06-19T10:06:04.905Z,31.04
2019-06-19T10:08:34.380Z,30.87
2019-06-19T10:11:04.158Z,30.98
2019-06-19T10:13:33.604Z,31.12
2019-06-19T10:16:03.079Z,31.09
2019-06-19T10:18:32.525Z,31.36
2019-06-19T10:21:01.988Z,31.66
2019-06-19T10:23:34.952Z,31.60
2019-06-19T10:26:02.602Z,31.41
2019-06-19T10:28:32.055Z,31.55
2019-06-19T10:31:01.493Z,31.72
2019-06-19T10:33:30.977Z,31.70
2019-06-19T10:36:00.414Z,31.84
2019-06-19T10:38:29.857Z,31.96
2019-06-19T10:40:59.322Z,31.97
2019-06-19T10:43:28.771Z,32.07
2019-06-19T10:45:58.229Z,32.35
2019-06-19T10:48:27.713Z,32.49
2019-06-19T10:50:57.123Z,32.67
2019-06-19T10:53:26.798Z,32.87
2019-06-19T10:55:56.263Z,33.17
2019-06-19T10:58:25.745Z,33.17
2019-06-19T11:00:55.171Z,33.16
2019-06-19T11:03:24.625Z,33.35
2019-06-19T11:05:54.085Z,33.50
2019-06-19T11:08:23.589Z,33.37
2019-06-19T11:10:53.044Z,33.54
2019-06-19T11:13:22.554Z,33.46
2019-06-19T11:15:51.994Z,33.36
2019-06-19T11:18:21.459Z,33.58
2019-06-19T11:20:50.898Z,33.70
2019-06-19T11:23:20.356Z,33.90
2019-06-19T11:25:51.419Z,34.02
2019-06-19T11:28:21.153Z,34.20
2019-06-19T11:30:50.603Z,34.55
2019-06-19T11:33:20.063Z,34.79
2019-06-19T11:35:56.981Z,34.69
2019-06-19T11:38:20.696Z,34.66
2019-06-19T11:40:50.150Z,34.54
2019-06-19T11:43:19.598Z,34.58
2019-06-19T11:45:49.063Z,34.66
2019-06-19T11:48:18.529Z,35.18
2019-06-19T11:50:48.050Z,35.37
2019-06-19T11:53:20.310Z,35.27
2019-06-19T11:55:48.686Z,35.42
2019-06-19T11:58:18.165Z,35.36
2019-06-19T12:00:47.615Z,35.37
2019-06-19T12:03:26.815Z,35.40
2019-06-19T12:05:48.255Z,35.37
2019-06-19T12:08:17.703Z,35.14
2019-06-19T12:10:47.149Z,34.84
2019-06-19T12:13:16.606Z,34.93
2019-06-19T12:15:46.055Z,34.63
2019-06-19T12:18:15.525Z,35.00
2019-06-19T12:20:44.953Z,35.08
2019-06-19T12:23:14.414Z,35.59
2019-06-19T12:25:43.868Z,35.60
2019-06-19T12:28:14.155Z,35.79
2019-06-19T12:30:43.597Z,35.94
2019-06-19T12:33:13.217Z,36.00
2019-06-19T12:35:42.684Z,35.98
2019-06-19T12:38:12.391Z,36.14
2019-06-19T12:40:41.851Z,36.63
2019-06-19T12:43:11.300Z,36.74
2019-06-19T12:45:40.789Z,36.73
2019-06-19T12:48:10.278Z,36.35
2019-06-19T12:50:39.946Z,36.15
2019-06-19T12:53:09.411Z,36.24
2019-06-19T12:55:38.855Z,36.19
2019-06-19T12:58:08.294Z,36.15
2019-06-19T13:00:37.776Z,35.62
2019-06-19T13:03:07.204Z,36.13
2019-06-19T13:05:36.949Z,36.43
2019-06-19T13:08:06.390Z,36.97
2019-06-19T13:10:35.873Z,37.00
2019-06-19T13:13:05.502Z,36.80
2019-06-19T13:15:34.889Z,36.71
2019-06-19T13:18:04.354Z,36.84
2019-06-19T13:20:33.791Z,37.34
2019-06-19T13:23:03.259Z,37.11
2019-06-19T13:25:32.697Z,37.09
2019-06-19T13:28:02.153Z,36.61
2019-06-19T13:30:31.750Z,36.13
2019-06-19T13:33:01.287Z,36.37
2019-06-19T13:35:30.732Z,36.66
2019-06-19T13:38:00.205Z,36.73
2019-06-19T13:40:29.718Z,37.38
2019-06-19T13:42:59.183Z,37.34
2019-06-19T13:45:28.627Z,36.21
2019-06-19T13:47:58.082Z,35.97
2019-06-19T13:50:27.603Z,36.60
2019-06-19T13:52:57.134Z,36.86
2019-06-19T13:55:26.582Z,36.27
2019-06-19T13:57:56.052Z,36.47
2019-06-19T14:00:25.641Z,36.69
2019-06-19T14:02:55.085Z,36.60
2019-06-19T14:05:24.976Z,36.90
2019-06-19T14:07:56.069Z,38.58
2019-06-19T14:10:25.512Z,39.09
2019-06-19T14:12:54.974Z,38.09
2019-06-19T14:15:24.556Z,36.90
2019-06-19T14:17:54.041Z,35.91
2019-06-19T14:20:23.720Z,37.42
2019-06-19T14:22:53.172Z,38.97
2019-06-19T14:25:22.630Z,40.08
2019-06-19T14:27:52.061Z,39.72
2019-06-19T14:30:22.130Z,38.68
2019-06-19T14:32:51.888Z,37.71
2019-06-19T14:35:21.400Z,38.16
2019-06-19T14:37:50.865Z,38.71
2019-06-19T14:40:20.548Z,38.88
2019-06-19T14:42:49.998Z,39.34
2019-06-19T14:45:19.598Z,40.16
2019-06-19T14:47:49.065Z,41.16
2019-06-19T14:50:18.595Z,41.53
2019-06-19T14:52:48.035Z,40.74
2019-06-19T14:55:17.630Z,40.40
2019-06-19T14:57:47.085Z,39.35
2019-06-19T15:00:16.754Z,38.31
2019-06-19T15:02:46.215Z,37.19
2019-06-19T15:05:15.793Z,38.18
2019-06-19T15:07:56.612Z,40.40
2019-06-19T15:10:16.516Z,40.63
2019-06-19T15:12:45.989Z,40.94
2019-06-19T15:15:15.499Z,40.76
2019-06-19T15:17:44.940Z,40.85
2019-06-19T15:20:14.935Z,39.84
2019-06-19T15:22:44.380Z,39.55
2019-06-19T15:25:13.975Z,40.23
2019-06-19T15:27:43.417Z,40.63
2019-06-19T15:30:14.702Z,40.34
2019-06-19T15:32:44.162Z,40.31
2019-06-19T15:35:13.746Z,38.80
2019-06-19T15:37:43.226Z,37.01
2019-06-19T15:40:13.006Z,37.62
2019-06-19T15:42:42.515Z,38.76
2019-06-19T15:45:12.582Z,39.32
2019-06-19T15:47:42.024Z,40.58
2019-06-19T15:50:12.025Z,41.51
2019-06-19T15:52:41.469Z,40.95
2019-06-19T15:55:11.628Z,40.47
2019-06-19T15:57:41.095Z,40.12
2019-06-19T16:00:15.463Z,40.35
2019-06-19T16:02:44.910Z,40.98
2019-06-19T16:05:14.762Z,41.96
2019-06-19T16:07:44.208Z,41.18
2019-06-19T16:10:14.873Z,42.28
2019-06-19T16:12:44.316Z,44.57
2019-06-19T16:15:16.289Z,45.84
2019-06-19T16:17:45.730Z,43.19
2019-06-19T16:20:15.716Z,42.24
2019-06-19T16:22:45.178Z,41.78
2019-06-19T16:25:14.981Z,42.12
2019-06-19T16:27:44.424Z,42.19
2019-06-19T16:30:15.688Z,42.83
2019-06-19T16:32:45.140Z,42.93
2019-06-19T16:35:15.132Z,42.59
2019-06-19T16:37:44.614Z,42.05
2019-06-19T16:40:15.851Z,42.14
2019-06-19T16:42:45.308Z,41.71
2019-06-19T16:45:16.399Z,41.69
2019-06-19T16:47:45.932Z,43.07
2019-06-19T16:50:15.711Z,43.10
2019-06-19T16:52:45.163Z,43.69
2019-06-19T16:55:14.948Z,42.80
2019-06-19T16:57:44.365Z,44.72
2019-06-19T17:00:15.744Z,46.22
2019-06-19T17:02:45.362Z,44.39
2019-06-19T17:05:16.241Z,42.66
2019-06-19T17:07:45.733Z,43.04
2019-06-19T17:10:15.844Z,43.43
2019-06-19T17:12:45.300Z,43.28
2019-06-19T17:15:15.200Z,41.64
2019-06-19T17:17:44.709Z,41.44
2019-06-19T17:20:15.793Z,41.93
2019-06-19T17:22:45.260Z,42.77
2019-06-19T17:25:16.529Z,41.79
2019-06-19T17:27:45.967Z,41.98
2019-06-19T17:30:17.401Z,42.51
2019-06-19T17:32:46.835Z,42.37
2019-06-19T17:35:16.405Z,42.40
2019-06-19T17:37:45.864Z,42.60
2019-06-19T17:40:16.119Z,42.72
2019-06-19T17:42:45.644Z,42.17
2019-06-19T17:45:15.453Z,41.03
2019-06-19T17:47:44.893Z,40.35
2019-06-19T17:50:15.147Z,38.97
2019-06-19T17:52:44.613Z,37.72
2019-06-19T17:55:14.126Z,36.37
2019-06-19T17:57:43.574Z,35.61
2019-06-19T18:00:14.044Z,35.25
2019-06-19T18:02:43.485Z,34.74
2019-06-19T18:05:13.062Z,34.15
2019-06-19T18:07:42.530Z,33.73
2019-06-19T18:10:13.685Z,33.59
2019-06-19T18:12:43.129Z,33.52
2019-06-19T18:15:12.927Z,33.42
2019-06-19T18:17:42.390Z,33.14
2019-06-19T18:20:11.986Z,32.62
2019-06-19T18:22:41.426Z,32.77
2019-06-19T18:25:11.221Z,32.69
2019-06-19T18:27:40.664Z,32.27
2019-06-19T18:30:11.853Z,32.18
2019-06-19T18:32:41.312Z,32.05
2019-06-19T18:35:11.199Z,32.12
2019-06-19T18:37:40.673Z,32.10
2019-06-19T18:40:11.624Z,32.19
2019-06-19T18:42:41.156Z,32.20
2019-06-19T18:45:11.607Z,31.78
2019-06-19T18:47:41.089Z,31.54
2019-06-19T18:50:13.746Z,31.42
2019-06-19T18:52:43.183Z,31.04
2019-06-19T18:55:13.385Z,30.89
2019-06-19T18:57:42.828Z,31.04
2019-06-19T19:00:14.688Z,31.06
2019-06-19T19:02:44.228Z,30.90
2019-06-19T19:05:14.267Z,30.71
2019-06-19T19:07:43.849Z,30.59
2019-06-19T19:10:15.695Z,30.60
2019-06-19T19:12:45.139Z,30.63
2019-06-19T19:15:14.926Z,30.65
2019-06-19T19:17:44.386Z,30.62
2019-06-19T19:20:14.167Z,30.54
2019-06-19T19:22:43.663Z,30.49
2019-06-19T19:25:14.173Z,30.42
2019-06-19T19:27:43.632Z,30.35
2019-06-19T19:30:14.317Z,30.27
2019-06-19T19:32:43.753Z,30.09
2019-06-19T19:35:13.551Z,30.00
2019-06-19T19:37:42.997Z,29.95
2019-06-19T19:40:28.309Z,29.80
2019-06-19T19:42:44.126Z,29.75
2019-06-19T19:45:14.426Z,29.66
2019-06-19T19:47:43.873Z,29.52
2019-06-19T19:50:14.724Z,29.41
2019-06-19T19:52:44.180Z,28.98
2019-06-19T19:55:14.207Z,29.06
2019-06-19T19:57:43.732Z,28.92
2019-06-19T20:00:15.259Z,28.94
2019-06-19T20:02:44.699Z,28.85
2019-06-19T20:05:14.276Z,28.80
2019-06-19T20:07:43.773Z,28.49
2019-06-19T20:10:15.063Z,28.22
2019-06-19T20:12:44.520Z,27.16
2019-06-19T20:15:14.103Z,27.14
2019-06-19T20:17:43.546Z,26.97
2019-06-19T20:20:13.946Z,26.42
2019-06-19T20:22:43.388Z,26.35
2019-06-19T20:25:13.257Z,26.01
2019-06-19T20:27:42.769Z,25.66
2019-06-19T20:30:12.965Z,25.51
2019-06-19T20:32:47.093Z,25.38
2019-06-19T20:35:13.878Z,25.14
2019-06-19T20:37:43.276Z,25.18
2019-06-19T20:40:13.851Z,25.08
2019-06-19T20:42:43.293Z,25.35
2019-06-19T20:45:13.257Z,24.97
2019-06-19T20:47:42.715Z,24.46
2019-06-19T20:50:15.746Z,24.38
2019-06-19T20:52:55.486Z,24.07
2019-06-19T20:55:17.347Z,23.83
2019-06-19T20:57:46.858Z,23.51
2019-06-19T21:00:18.010Z,23.73
2019-06-19T21:02:47.468Z,23.51
2019-06-19T21:05:17.402Z,23.75
2019-06-19T21:07:46.844Z,23.86
2019-06-19T21:10:17.156Z,24.03
2019-06-19T21:12:46.618Z,24.06
2019-06-19T21:15:18.392Z,24.07
2019-06-19T21:17:47.893Z,23.98
2019-06-19T21:20:17.676Z,24.05
2019-06-19T21:22:47.112Z,23.93
2019-06-19T21:25:17.024Z,24.02
2019-06-19T21:27:46.471Z,24.02
2019-06-19T21:30:17.127Z,23.93
2019-06-19T21:32:46.583Z,23.99
2019-06-19T21:35:16.168Z,23.95
2019-06-19T21:37:45.649Z,23.90
2019-06-19T21:40:15.751Z,23.86
2019-06-19T21:42:45.193Z,23.96
2019-06-19T21:45:14.997Z,23.92
2019-06-19T21:47:44.559Z,23.93
2019-06-19T21:50:15.484Z,23.90
2019-06-19T21:52:45.253Z,23.95
2019-06-19T21:55:15.189Z,23.93
2019-06-19T21:57:44.965Z,23.91
2019-06-19T22:00:39.511Z,23.85
2019-06-19T22:03:09.316Z,23.70
2019-06-19T22:05:38.824Z,23.61
2019-06-19T22:08:08.279Z,23.46
2019-06-19T22:10:38.612Z,23.45
2019-06-19T22:13:08.119Z,23.46
2019-06-19T22:15:37.649Z,23.36
2019-06-19T22:18:07.161Z,23.05
2019-06-19T22:20:36.692Z,23.00
2019-06-19T22:23:06.136Z,23.06
2019-06-19T22:25:35.654Z,23.10
2019-06-19T22:28:05.351Z,23.20
2019-06-19T22:30:50.813Z,23.24
2019-06-19T22:33:20.342Z,23.18
2019-06-19T22:35:50.161Z,23.14
2019-06-19T22:38:19.601Z,23.12
2019-06-19T22:40:49.066Z,23.17
2019-06-19T22:43:18.544Z,23.02
2019-06-19T22:45:48.089Z,22.87
2019-06-19T22:48:17.541Z,22.81
2019-06-19T22:50:47.228Z,22.79
2019-06-19T22:53:16.683Z,22.75
2019-06-19T22:55:46.125Z,22.76
2019-06-19T22:58:15.574Z,22.77
2019-06-19T23:00:45.047Z,22.79
2019-06-19T23:03:32.514Z,22.67
2019-06-19T23:06:07.843Z,22.64
2019-06-19T23:08:37.288Z,22.30
2019-06-19T23:11:06.806Z,22.39
2019-06-19T23:13:36.245Z,22.32
2019-06-19T23:16:06.333Z,22.35
2019-06-19T23:18:35.763Z,22.23
2019-06-19T23:21:05.665Z,22.09
2019-06-19T23:23:35.097Z,22.13
2019-06-19T23:26:04.720Z,22.13
2019-06-19T23:28:34.215Z,22.13
2019-06-19T23:31:03.629Z,22.07
2019-06-19T23:33:33.097Z,22.13
2019-06-19T23:36:02.554Z,22.11
2019-06-19T23:38:32.014Z,22.19
2019-06-19T23:41:01.478Z,22.21
2019-06-19T23:43:30.924Z,22.22
2019-06-19T23:46:00.374Z,22.21
2019-06-19T23:48:32.773Z,22.16
2019-06-19T23:51:01.010Z,22.11
2019-06-19T23:53:30.463Z,22.13
2019-06-19T23:55:59.937Z,22.03
2019-06-19T23:58:29.448Z,22.02
